createdAt,value
2019-02-28T00:01:33.073Z,12.27
2019-02-28T00:04:00.368Z,15.03
2019-02-28T00:06:27.738Z,9.30
2019-02-28T00:08:55.027Z,12.17
2019-02-28T00:11:22.285Z,11.77
2019-02-28T00:13:52.379Z,11.57
2019-02-28T00:16:18.819Z,10.77
2019-02-28T00:18:49.494Z,13.27
2019-02-28T00:21:15.397Z,11.70
2019-02-28T00:23:42.761Z,14.10
2019-02-28T00:26:11.732Z,9.80
2019-02-28T00:28:39.261Z,13.50
2019-02-28T00:31:25.711Z,10.97
2019-02-28T00:34:05.623Z,9.60
2019-02-28T00:36:33.044Z,11.03
2019-02-28T00:39:00.709Z,11.03
2019-02-28T00:41:29.996Z,11.83
2019-02-28T00:43:57.937Z,10.13
2019-02-28T00:46:25.304Z,10.70
2019-02-28T00:48:53.952Z,11.83
2019-02-28T00:51:21.577Z,8.90
2019-02-28T00:53:48.846Z,10.07
2019-02-28T00:56:17.563Z,9.80
2019-02-28T00:58:45.296Z,9.63
2019-02-28T01:01:12.721Z,10.90
2019-02-28T01:03:40.063Z,10.60
2019-02-28T01:06:20.445Z,11.93
2019-02-28T01:08:47.891Z,12.30
2019-02-28T01:11:15.191Z,12.27
2019-02-28T01:13:42.536Z,13.07
2019-02-28T01:16:09.939Z,14.43
2019-02-28T01:18:56.739Z,11.90
2019-02-28T01:21:24.589Z,14.47
2019-02-28T01:23:52.088Z,11.27
2019-02-28T01:26:19.324Z,12.47
2019-02-28T01:28:46.626Z,10.47
2019-02-28T01:31:13.895Z,14.27
2019-02-28T01:33:42.744Z,13.97
2019-02-28T01:36:12.273Z,12.67
2019-02-28T01:38:39.247Z,13.47
2019-02-28T01:41:08.376Z,13.17
2019-02-28T01:43:35.765Z,12.80
2019-02-28T01:46:03.097Z,12.10
2019-02-28T01:48:30.469Z,13.27
2019-02-28T01:51:10.588Z,12.57
2019-02-28T01:53:38.033Z,11.53
2019-02-28T01:56:05.375Z,11.20
2019-02-28T01:58:33.809Z,13.33
2019-02-28T02:01:01.130Z,13.83
2019-02-28T02:03:28.436Z,15.47
2019-02-28T02:05:55.720Z,13.27
2019-02-28T02:08:23.033Z,13.83
2019-02-28T02:10:54.968Z,14.87
2019-02-28T02:13:21.859Z,15.73
2019-02-28T02:15:51.404Z,15.93
2019-02-28T02:18:18.321Z,13.13
2019-02-28T02:20:45.582Z,14.73
2019-02-28T02:23:17.821Z,16.33
2019-02-28T02:25:42.092Z,14.83
2019-02-28T02:28:09.398Z,14.03
2019-02-28T02:30:50.937Z,13.47
2019-02-28T02:33:32.402Z,16.37
2019-02-28T02:36:01.441Z,14.17
2019-02-28T02:38:28.704Z,13.47
2019-02-28T02:41:00.455Z,12.77
2019-02-28T02:43:26.342Z,17.57
2019-02-28T02:46:06.453Z,17.00
2019-02-28T02:48:33.794Z,14.77
2019-02-28T02:51:01.032Z,17.00
2019-02-28T02:53:28.467Z,18.13
2019-02-28T02:55:55.760Z,16.30
2019-02-28T02:58:27.988Z,19.00
2019-02-28T03:00:53.521Z,17.53
2019-02-28T03:03:20.811Z,18.13
2019-02-28T03:05:49.197Z,22.20
2019-02-28T03:08:16.508Z,18.57
2019-02-28T03:10:43.768Z,18.07
2019-02-28T03:13:11.064Z,15.50
2019-02-28T03:15:38.354Z,17.90
2019-02-28T03:18:05.689Z,16.13
2019-02-28T03:20:32.949Z,20.03
2019-02-28T03:23:01.959Z,18.13
2019-02-28T03:25:29.407Z,19.23
2019-02-28T03:27:56.933Z,18.50
2019-02-28T03:30:31.892Z,24.47
2019-02-28T03:32:53.533Z,20.23
2019-02-28T03:35:20.901Z,16.80
2019-02-28T03:38:01.322Z,19.33
2019-02-28T03:40:28.907Z,21.30
2019-02-28T03:42:56.344Z,20.97
2019-02-28T03:45:23.696Z,19.23
2019-02-28T03:47:51.010Z,21.17
2019-02-28T03:50:22.061Z,22.23
2019-02-28T03:52:47.736Z,21.73
2019-02-28T03:55:27.529Z,21.53
2019-02-28T03:57:54.873Z,20.90
2019-02-28T04:00:22.323Z,19.23
2019-02-28T04:02:57.047Z,19.13
2019-02-28T04:05:26.702Z,20.73
2019-02-28T04:07:52.816Z,18.73
2019-02-28T04:10:22.146Z,16.37
2019-02-28T04:12:47.225Z,20.37
2019-02-28T04:15:14.877Z,23.50
2019-02-28T04:17:42.262Z,22.07
2019-02-28T04:20:09.660Z,22.60
2019-02-28T04:22:37.069Z,23.83
2019-02-28T04:25:04.418Z,23.90
2019-02-28T04:27:31.712Z,22.70
2019-02-28T04:30:05.888Z,23.30
2019-02-28T04:32:28.231Z,25.10
2019-02-28T04:34:55.573Z,22.10
2019-02-28T04:37:22.921Z,21.00
2019-02-28T04:39:53.344Z,24.07
2019-02-28T04:42:20.617Z,25.40
2019-02-28T04:44:49.187Z,23.60
2019-02-28T04:47:17.164Z,26.10
2019-02-28T04:49:44.476Z,26.27
2019-02-28T04:52:12.788Z,22.47
2019-02-28T04:54:40.275Z,30.30
2019-02-28T04:57:07.548Z,27.07
2019-02-28T04:59:34.954Z,28.23
2019-02-28T05:02:02.302Z,29.27
2019-02-28T05:04:29.597Z,25.23
2019-02-28T05:06:56.877Z,30.17
2019-02-28T05:09:24.168Z,28.47
2019-02-28T05:11:51.418Z,24.10
2019-02-28T05:14:23.360Z,27.30
2019-02-28T05:16:48.989Z,29.23
2019-02-28T05:19:17.333Z,28.43
2019-02-28T05:21:44.788Z,25.60
2019-02-28T05:24:12.064Z,28.73
2019-02-28T05:26:39.381Z,31.83
2019-02-28T05:29:06.686Z,33.17
2019-02-28T05:31:34.038Z,34.93
2019-02-28T05:34:01.471Z,32.93
2019-02-28T05:36:28.759Z,30.57
2019-02-28T05:38:56.527Z,35.10
2019-02-28T05:41:24.634Z,35.23
2019-02-28T05:43:51.880Z,37.00
2019-02-28T05:46:20.257Z,46.57
2019-02-28T05:48:48.372Z,38.97
2019-02-28T05:51:15.685Z,36.20
2019-02-28T05:53:43.023Z,31.93
2019-02-28T05:56:10.289Z,37.50
2019-02-28T05:58:37.628Z,39.70
2019-02-28T06:01:05.637Z,38.83
2019-02-28T06:03:33.021Z,38.17
2019-02-28T06:06:00.260Z,38.27
2019-02-28T06:08:27.590Z,40.30
2019-02-28T06:10:56.039Z,42.07
2019-02-28T06:13:25.438Z,37.87
2019-02-28T06:15:52.701Z,37.67
2019-02-28T06:18:20.043Z,40.37
2019-02-28T06:20:50.991Z,40.67
2019-02-28T06:23:16.587Z,36.53
2019-02-28T06:25:43.913Z,39.20
2019-02-28T06:28:12.063Z,41.37
2019-02-28T06:30:41.455Z,39.80
2019-02-28T06:33:08.757Z,41.37
2019-02-28T06:35:36.070Z,37.77
2019-02-28T06:38:22.785Z,38.40
2019-02-28T06:40:50.156Z,42.87
2019-02-28T06:43:18.818Z,45.77
2019-02-28T06:45:46.848Z,40.60
2019-02-28T06:48:14.116Z,45.67
2019-02-28T06:50:41.417Z,42.70
2019-02-28T06:53:08.679Z,43.63
2019-02-28T06:55:39.585Z,48.10
2019-02-28T06:58:07.050Z,43.87
2019-02-28T07:00:34.357Z,41.90
2019-02-28T07:03:03.303Z,44.20
2019-02-28T07:05:30.822Z,46.70
2019-02-28T07:07:58.153Z,45.37
2019-02-28T07:10:25.432Z,44.90
2019-02-28T07:12:52.653Z,48.17
2019-02-28T07:15:23.721Z,48.53
2019-02-28T07:17:50.274Z,53.70
2019-02-28T07:20:17.680Z,47.47
2019-02-28T07:22:45.044Z,48.37
2019-02-28T07:25:12.787Z,49.57
2019-02-28T07:27:41.344Z,45.23
2019-02-28T07:30:11.164Z,49.90
2019-02-28T07:32:38.465Z,49.83
2019-02-28T07:35:05.796Z,49.17
2019-02-28T07:37:33.184Z,53.30
2019-02-28T07:40:00.517Z,49.23
2019-02-28T07:42:27.838Z,51.40
2019-02-28T07:44:58.030Z,51.90
2019-02-28T07:47:25.437Z,51.43
2019-02-28T07:49:53.035Z,51.53
2019-02-28T07:52:20.476Z,46.50
2019-02-28T07:54:51.552Z,48.43
2019-02-28T07:57:17.980Z,52.73
2019-02-28T07:59:46.583Z,55.67
2019-02-28T08:02:13.949Z,53.70
2019-02-28T08:04:43.598Z,53.70
2019-02-28T08:07:11.407Z,60.43
2019-02-28T08:09:40.690Z,56.70
2019-02-28T08:12:08.798Z,63.63
2019-02-28T08:14:36.125Z,59.67
2019-02-28T08:17:05.480Z,66.23
2019-02-28T08:19:33.393Z,62.30
2019-02-28T08:22:00.669Z,68.03
2019-02-28T08:24:27.972Z,68.10
2019-02-28T08:26:55.536Z,64.80
2019-02-28T08:29:22.770Z,64.70
2019-02-28T08:31:50.088Z,68.67
2019-02-28T08:34:17.425Z,66.13
2019-02-28T08:36:46.911Z,65.83
2019-02-28T08:39:16.266Z,59.03
2019-02-28T08:41:43.788Z,70.70
2019-02-28T08:44:11.220Z,66.47
2019-02-28T08:46:38.561Z,62.80
2019-02-28T08:49:07.203Z,66.67
2019-02-28T08:51:36.570Z,68.67
2019-02-28T08:54:06.000Z,67.27
2019-02-28T08:56:33.094Z,64.77
2019-02-28T08:59:01.503Z,67.07
2019-02-28T09:01:30.641Z,63.63
2019-02-28T09:03:59.846Z,66.20
2019-02-28T09:06:27.690Z,68.53
2019-02-28T09:08:56.615Z,66.87
2019-02-28T09:11:24.087Z,61.70
2019-02-28T09:13:51.368Z,73.40
2019-02-28T09:16:18.703Z,66.90
2019-02-28T09:18:48.473Z,63.63
2019-02-28T09:21:18.308Z,67.07
2019-02-28T09:23:45.077Z,67.77
2019-02-28T09:26:12.532Z,64.63
2019-02-28T09:28:44.376Z,71.23
2019-02-28T09:31:10.808Z,74.03
2019-02-28T09:33:38.089Z,78.40
2019-02-28T09:36:05.333Z,61.47
2019-02-28T09:38:33.092Z,71.20
2019-02-28T09:41:01.402Z,70.07
2019-02-28T09:43:29.738Z,71.47
2019-02-28T09:45:56.989Z,62.27
2019-02-28T09:48:24.306Z,64.50
2019-02-28T09:50:58.019Z,66.10
2019-02-28T09:53:20.759Z,65.70
2019-02-28T09:55:48.058Z,67.07
2019-02-28T09:58:15.358Z,66.80
2019-02-28T10:00:43.231Z,54.73
2019-02-28T10:03:15.500Z,73.13
2019-02-28T10:05:43.180Z,63.10
2019-02-28T10:08:10.625Z,57.97
2019-02-28T10:10:39.165Z,61.00
2019-02-28T10:13:06.430Z,67.70
2019-02-28T10:15:33.804Z,63.97
2019-02-28T10:18:04.356Z,59.27
2019-02-28T10:20:30.413Z,70.10
2019-02-28T10:22:57.709Z,55.40
2019-02-28T10:25:26.095Z,62.07
2019-02-28T10:27:54.615Z,62.67
2019-02-28T10:30:31.162Z,61.77
2019-02-28T10:32:51.735Z,65.73
2019-02-28T10:35:19.141Z,65.07
2019-02-28T10:37:46.564Z,58.80
2019-02-28T10:40:17.712Z,59.50
2019-02-28T10:42:45.556Z,57.13
2019-02-28T10:45:13.487Z,57.53
2019-02-28T10:47:40.782Z,61.93
2019-02-28T10:50:14.192Z,58.40
2019-02-28T10:52:41.490Z,59.50
2019-02-28T10:55:28.920Z,59.33
2019-02-28T10:57:56.297Z,59.67
2019-02-28T11:00:29.533Z,55.07
2019-02-28T11:02:59.193Z,59.37
2019-02-28T11:05:28.886Z,55.77
2019-02-28T11:07:56.816Z,55.80
2019-02-28T11:10:29.001Z,58.07
2019-02-28T11:12:58.329Z,61.13
2019-02-28T11:15:26.024Z,55.17
2019-02-28T11:17:53.564Z,58.10
2019-02-28T11:20:22.313Z,57.93
2019-02-28T11:22:50.348Z,60.30
2019-02-28T11:25:18.278Z,60.80
2019-02-28T11:27:45.648Z,54.27
2019-02-28T11:30:14.313Z,55.27
2019-02-28T11:32:42.014Z,53.30
2019-02-28T11:35:09.673Z,60.07
2019-02-28T11:37:38.845Z,59.63
2019-02-28T11:40:08.499Z,64.10
2019-02-28T11:42:35.968Z,54.37
2019-02-28T11:45:03.784Z,58.03
2019-02-28T11:47:31.616Z,58.47
2019-02-28T11:50:00.323Z,57.93
2019-02-28T11:52:28.169Z,55.43
2019-02-28T11:54:55.488Z,57.20
2019-02-28T11:57:22.945Z,62.47
2019-02-28T11:59:51.443Z,61.37
2019-02-28T12:02:20.256Z,61.77
2019-02-28T12:04:48.140Z,61.33
2019-02-28T12:07:15.740Z,62.73
2019-02-28T12:09:43.032Z,62.63
2019-02-28T12:12:11.164Z,60.23
2019-02-28T12:14:38.766Z,57.20
2019-02-28T12:17:06.086Z,60.03
2019-02-28T12:19:33.425Z,61.90
2019-02-28T12:22:00.823Z,65.07
2019-02-28T12:24:29.372Z,55.37
2019-02-28T12:26:57.480Z,58.97
2019-02-28T12:29:24.863Z,61.07
2019-02-28T12:31:52.323Z,61.67
2019-02-28T12:34:19.666Z,63.73
2019-02-28T12:36:49.382Z,52.70
2019-02-28T12:39:16.132Z,59.60
2019-02-28T12:41:43.456Z,56.90
2019-02-28T12:44:12.413Z,52.47
2019-02-28T12:46:43.315Z,55.53
2019-02-28T12:49:10.450Z,63.93
2019-02-28T12:51:39.721Z,62.17
2019-02-28T12:54:06.901Z,58.80
2019-02-28T12:56:34.185Z,57.80
2019-02-28T12:59:01.495Z,58.57
2019-02-28T13:01:28.800Z,56.73
2019-02-28T13:04:00.621Z,59.27
2019-02-28T13:06:25.261Z,61.90
2019-02-28T13:08:54.141Z,55.50
2019-02-28T13:11:21.424Z,60.37
2019-02-28T13:13:48.905Z,59.00
2019-02-28T13:16:17.440Z,62.13
2019-02-28T13:18:45.632Z,56.50
2019-02-28T13:21:12.931Z,54.27
2019-02-28T13:23:41.345Z,58.77
2019-02-28T13:26:08.705Z,61.97
2019-02-28T13:28:36.024Z,56.73
2019-02-28T13:31:03.424Z,55.87
2019-02-28T13:33:30.835Z,55.10
2019-02-28T13:35:58.182Z,57.87
2019-02-28T13:38:25.481Z,59.90
2019-02-28T13:40:52.812Z,54.90
2019-02-28T13:43:22.441Z,54.10
2019-02-28T13:45:50.659Z,53.90
2019-02-28T13:48:26.267Z,58.33
2019-02-28T13:50:49.319Z,61.47
2019-02-28T13:53:17.989Z,59.37
2019-02-28T13:55:46.024Z,54.20
2019-02-28T13:58:13.403Z,61.80
2019-02-28T14:00:45.564Z,62.10
2019-02-28T14:03:10.484Z,58.17
2019-02-28T14:05:40.928Z,55.20
2019-02-28T14:08:11.466Z,59.87
2019-02-28T14:10:36.416Z,62.60
2019-02-28T14:13:05.119Z,63.93
2019-02-28T14:15:37.826Z,58.67
2019-02-28T14:18:07.576Z,60.87
2019-02-28T14:20:35.821Z,60.10
2019-02-28T14:23:03.190Z,60.83
2019-02-28T14:25:30.704Z,65.37
2019-02-28T14:28:00.240Z,58.90
2019-02-28T14:30:28.799Z,65.23
2019-02-28T14:32:56.175Z,57.83
2019-02-28T14:35:23.877Z,56.90
2019-02-28T14:37:55.313Z,63.30
2019-02-28T14:40:22.308Z,62.40
2019-02-28T14:42:50.058Z,55.33
2019-02-28T14:45:18.362Z,63.10
2019-02-28T14:47:45.898Z,64.33
2019-02-28T14:50:15.398Z,59.00
2019-02-28T14:52:44.117Z,60.27
2019-02-28T14:55:13.320Z,58.87
2019-02-28T14:57:40.693Z,67.60
2019-02-28T15:00:11.492Z,58.30
2019-02-28T15:02:38.964Z,71.30
2019-02-28T15:05:08.743Z,67.20
2019-02-28T15:07:38.786Z,61.53
2019-02-28T15:10:08.743Z,64.57
2019-02-28T15:12:36.340Z,72.20
2019-02-28T15:15:05.348Z,53.73
2019-02-28T15:17:32.787Z,58.07
2019-02-28T15:20:00.363Z,61.50
2019-02-28T15:22:27.769Z,61.17
2019-02-28T15:24:55.170Z,65.10
2019-02-28T15:27:22.526Z,57.27
2019-02-28T15:29:51.195Z,64.13
2019-02-28T15:32:18.565Z,66.50
2019-02-28T15:34:45.978Z,62.73
2019-02-28T15:37:14.504Z,68.47
2019-02-28T15:39:41.798Z,67.70
2019-02-28T15:42:09.167Z,59.57
2019-02-28T15:44:36.500Z,61.80
2019-02-28T15:47:05.036Z,66.17
2019-02-28T15:49:32.344Z,65.73
2019-02-28T15:52:01.890Z,63.13
2019-02-28T15:54:28.890Z,54.33
2019-02-28T15:56:56.457Z,59.23
2019-02-28T15:59:23.906Z,68.67
2019-02-28T16:01:51.358Z,67.43
2019-02-28T16:04:18.657Z,57.93
2019-02-28T16:06:45.935Z,56.23
2019-02-28T16:09:18.765Z,66.50
2019-02-28T16:11:45.424Z,64.77
2019-02-28T16:14:14.789Z,62.33
2019-02-28T16:16:42.205Z,66.10
2019-02-28T16:19:10.759Z,62.47
2019-02-28T16:21:40.694Z,66.83
2019-02-28T16:24:07.446Z,63.23
2019-02-28T16:26:34.796Z,58.63
2019-02-28T16:29:02.124Z,68.00
2019-02-28T16:31:29.561Z,55.90
2019-02-28T16:34:04.885Z,58.57
2019-02-28T16:36:26.618Z,62.03
2019-02-28T16:38:53.959Z,71.07
2019-02-28T16:41:21.348Z,66.77
2019-02-28T16:43:48.940Z,63.37
2019-02-28T16:46:16.255Z,67.03
2019-02-28T16:48:43.759Z,59.50
2019-02-28T16:51:11.128Z,55.63
2019-02-28T16:53:38.437Z,61.93
2019-02-28T16:56:06.428Z,74.73
2019-02-28T16:58:34.034Z,60.40
2019-02-28T17:01:01.449Z,55.47
2019-02-28T17:03:28.921Z,58.87
2019-02-28T17:05:58.407Z,61.13
2019-02-28T17:08:27.885Z,64.47
2019-02-28T17:10:55.170Z,64.10
2019-02-28T17:13:28.390Z,62.20
2019-02-28T17:16:14.064Z,58.87
2019-02-28T17:18:41.556Z,62.40
2019-02-28T17:21:08.989Z,57.17
2019-02-28T17:23:36.881Z,61.47
2019-02-28T17:26:05.708Z,65.07
2019-02-28T17:28:53.177Z,69.17
2019-02-28T17:31:39.223Z,62.17
2019-02-28T17:34:06.856Z,63.50
2019-02-28T17:36:34.235Z,56.97
2019-02-28T17:39:01.698Z,59.80
2019-02-28T17:41:34.040Z,58.43
2019-02-28T17:44:10.543Z,58.20
2019-02-28T17:46:37.885Z,61.23
2019-02-28T17:49:45.554Z,66.67
2019-02-28T17:52:22.176Z,68.07
2019-02-28T17:55:36.464Z,58.70
2019-02-28T17:58:20.628Z,63.30
2019-02-28T18:01:16.834Z,61.30
2019-02-28T18:04:20.929Z,73.87
2019-02-28T18:07:15.586Z,65.87
2019-02-28T18:10:08.847Z,77.57
2019-02-28T18:13:00.380Z,60.77
2019-02-28T18:16:29.080Z,63.53
2019-02-28T18:19:42.106Z,68.33
2019-02-28T18:22:36.638Z,71.13
2019-02-28T18:26:04.396Z,68.07
2019-02-28T18:29:03.273Z,65.03
2019-02-28T18:31:30.629Z,67.93
2019-02-28T18:34:03.969Z,64.03
2019-02-28T18:36:31.907Z,70.53
2019-02-28T18:38:59.552Z,69.67
2019-02-28T18:41:28.320Z,70.13
2019-02-28T18:44:00.061Z,66.87
2019-02-28T18:46:29.496Z,67.30
2019-02-28T18:48:56.094Z,75.93
2019-02-28T18:51:23.713Z,74.57
2019-02-28T18:53:51.278Z,69.80
2019-02-28T18:56:18.918Z,61.33
2019-02-28T18:58:46.643Z,66.77
2019-02-28T19:01:14.595Z,67.23
2019-02-28T19:03:42.417Z,61.00
2019-02-28T19:06:12.683Z,70.70
2019-02-28T19:08:49.940Z,68.77
2019-02-28T19:11:20.333Z,66.47
2019-02-28T19:13:54.346Z,70.60
2019-02-28T19:16:26.082Z,65.33
2019-02-28T19:18:53.929Z,68.93
2019-02-28T19:21:22.376Z,67.33
2019-02-28T19:23:53.368Z,80.33
2019-02-28T19:26:24.835Z,70.73
2019-02-28T19:28:54.919Z,75.07
2019-02-28T19:31:22.742Z,64.47
2019-02-28T19:33:56.132Z,67.60
2019-02-28T19:36:25.646Z,66.17
2019-02-28T19:38:53.350Z,65.40
2019-02-28T19:41:20.946Z,76.33
2019-02-28T19:43:48.859Z,76.03
2019-02-28T19:46:17.819Z,83.97
2019-02-28T19:48:45.493Z,87.97
2019-02-28T19:51:13.261Z,84.27
2019-02-28T19:53:42.014Z,84.80
2019-02-28T19:56:09.534Z,93.13
2019-02-28T19:58:39.088Z,95.40
2019-02-28T20:01:07.908Z,91.60
2019-02-28T20:03:35.510Z,96.60
2019-02-28T20:06:03.222Z,99.23
2019-02-28T20:08:31.126Z,110.00
2019-02-28T20:10:59.142Z,94.00
2019-02-28T20:13:26.804Z,96.30
2019-02-28T20:15:54.519Z,102.90
2019-02-28T20:18:22.238Z,96.23
2019-02-28T20:20:49.997Z,80.07
2019-02-28T20:23:17.725Z,86.87
2019-02-28T20:25:45.603Z,91.70
2019-02-28T20:28:13.443Z,77.90
2019-02-28T20:30:42.219Z,74.57
2019-02-28T20:33:09.853Z,76.73
2019-02-28T20:35:37.639Z,73.83
2019-02-28T20:38:05.528Z,73.33
2019-02-28T20:40:35.120Z,71.43
2019-02-28T20:43:04.501Z,65.07
2019-02-28T20:45:32.362Z,60.97
2019-02-28T20:48:00.050Z,66.43
2019-02-28T20:50:30.689Z,58.80
2019-02-28T20:52:59.478Z,62.83
2019-02-28T20:55:27.219Z,66.87
2019-02-28T20:57:56.882Z,71.17
2019-02-28T21:00:26.091Z,70.40
2019-02-28T21:02:53.941Z,69.07
2019-02-28T21:05:23.117Z,71.13
2019-02-28T21:07:51.099Z,68.80
2019-02-28T21:10:18.711Z,66.77
2019-02-28T21:12:48.276Z,63.17
2019-02-28T21:15:15.974Z,64.03
2019-02-28T21:17:43.684Z,57.43
2019-02-28T21:20:12.301Z,48.27
2019-02-28T21:22:40.552Z,49.90
2019-02-28T21:25:09.721Z,44.13
2019-02-28T21:27:39.915Z,44.07
2019-02-28T21:30:11.623Z,44.80
2019-02-28T21:32:39.465Z,41.30
2019-02-28T21:35:07.122Z,43.80
2019-02-28T21:37:36.441Z,36.27
2019-02-28T21:40:06.629Z,37.73
2019-02-28T21:42:36.196Z,39.10
2019-02-28T21:45:05.213Z,38.00
2019-02-28T21:47:34.738Z,46.63
2019-02-28T21:50:04.158Z,40.10
2019-02-28T21:52:31.807Z,43.80
2019-02-28T21:54:59.462Z,43.10
2019-02-28T21:57:27.226Z,37.23
2019-02-28T21:59:54.727Z,40.13
2019-02-28T22:02:23.434Z,41.20
2019-02-28T22:04:51.013Z,45.30
2019-02-28T22:07:18.740Z,47.60
2019-02-28T22:09:48.115Z,42.43
2019-02-28T22:12:15.762Z,45.40
2019-02-28T22:14:43.484Z,44.77
2019-02-28T22:17:11.073Z,44.90
2019-02-28T22:19:38.766Z,47.77
2019-02-28T22:22:06.454Z,47.70
2019-02-28T22:24:35.416Z,50.87
2019-02-28T22:27:03.041Z,47.30
2019-02-28T22:29:31.792Z,48.00
2019-02-28T22:32:27.787Z,55.83
2019-02-28T22:35:03.408Z,58.40
2019-02-28T22:37:31.165Z,54.00
2019-02-28T22:39:58.716Z,51.13
2019-02-28T22:42:28.024Z,62.27
2019-02-28T22:44:55.592Z,61.90
2019-02-28T22:47:24.328Z,63.73
2019-02-28T22:49:51.990Z,55.43
2019-02-28T22:52:19.644Z,63.77
2019-02-28T22:54:47.212Z,60.80
2019-02-28T22:57:16.639Z,69.73
2019-02-28T22:59:44.100Z,68.73
2019-02-28T23:02:11.748Z,64.40
2019-02-28T23:04:39.331Z,63.00
2019-02-28T23:07:07.996Z,61.70
2019-02-28T23:09:37.326Z,62.40
2019-02-28T23:12:04.950Z,64.20
2019-02-28T23:14:33.826Z,66.33
2019-02-28T23:17:01.321Z,65.97
2019-02-28T23:19:28.944Z,56.20
2019-02-28T23:21:58.399Z,63.10
2019-02-28T23:24:26.154Z,70.47
2019-02-28T23:27:10.959Z,62.33
2019-02-28T23:29:41.125Z,66.90
2019-02-28T23:32:31.249Z,62.23
2019-02-28T23:34:59.046Z,59.30
2019-02-28T23:37:26.673Z,55.27
2019-02-28T23:39:54.317Z,58.87
2019-02-28T23:42:21.891Z,50.30
2019-02-28T23:44:49.370Z,49.43
2019-02-28T23:47:16.859Z,41.47
2019-02-28T23:49:44.506Z,36.13
2019-02-28T23:52:12.149Z,30.93
2019-02-28T23:54:39.683Z,31.13
2019-02-28T23:57:07.297Z,30.00
